Airfield :
LOGIN :

Register | Disclaimer

   EN    FR    IT 

 










Legend :    VFR   Marginal VFR   IFR   Intensive IFR   Very Intensive IFR
Visi :
Ceiling :
>= 8 km
>= 3000ft
5 to 8 km
1000 to 3000 ft
1500m to 5 km
500 to 1000 ft
800 to 1500m
200 to 500 ft
< 800m
< 200 ft
Symbols :   Thunderstorms  Fog  Heavy snow  Heavy precipitations  Wind > 20 kt
SIGMETs :     Misc.  Thunderstorms  Icing  Turbulence  Mountain Waves  Volcanic Ashes






- Airport Elevation : 755 ft
- IATA code : DRS


EDDC - Dresden Klotzsche

CURRENT METAR :
  • 301350Z 36005KT 330V030 9999 SCT032 17/10 Q1015 NOSIG

EXPIRED METARs :
  • 301320Z 34006KT 300V020 9999 SCT029 17/10 Q1015 NOSIG
  • 301250Z 31004KT 250V350 9999 SCT029 17/10 Q1015 NOSIG
  • 301220Z 34006KT 310V010 9999 SCT027 17/10 Q1015 NOSIG
  • 301150Z 34008KT 260V360 9999 SCT025 17/10 Q1016 NOSIG
  • 301120Z 35006KT 280V020 9999 SCT025 16/10 Q1016 NOSIG

TAF TAF EDDC
Valid from the 30 at 12:00 until the 01 at 12:00 UTC


301100Z 3012/0112 VRB03KT 9999 SCT025
TEMPO 0103/0107 2000 BR BKN010



MET'MAP, your aeronautical weather chart ! - Copyright ORBIFLY December 2007 - Disclaimer

ORBIFLY MET'MAP TEAM :

Programming & Development : Alexandra Zaïnal
Concept & original design : Baudouin d'Aumeries
Assistance for programming : Marc-Olivier Méhu
Technical & hardware support : Manuel Goepfert

Contact : metmap@orbifly.com




SOURCES & CREDITS :

   NOAA